Time;durP1;ratioP1;P1;durP2;ratioP2;P2;SDS_P1;SDS_P2;PMS_P1;PMS_P2;Temp;Humidity;BMP_temperature;BMP_pressure;BME280_temperature;BME280_humidity;BME280_pressure;Samples;Min_cycle;Max_cycle;Signal;HPM_P1;HPM_P2
2023/09/06 00:00:12;;;;;;;6.22;2.35;;;15.80;99.90;;;14.88;99.70;101816.13;4949257;28;20027;-73
2023/09/06 00:02:37;;;;;;;3.85;2.30;;;15.80;99.90;;;14.89;100.00;101823.13;4938172;28;20032;-73
2023/09/06 00:05:04;;;;;;;3.17;2.40;;;15.80;99.90;;;14.90;99.88;101823.97;4960361;28;20035;-73
2023/09/06 00:07:29;;;;;;;4.75;2.85;;;15.80;99.90;;;14.89;99.39;101817.81;4942566;28;20121;-72
2023/09/06 00:09:55;;;;;;;2.53;1.77;;;15.80;99.90;;;14.90;98.19;101821.31;4958933;28;20093;-72
2023/09/06 00:12:21;;;;;;;5.68;2.05;;;15.80;99.90;;;14.88;97.36;101821.41;4946184;28;20035;-72
2023/09/06 00:14:46;;;;;;;3.60;1.92;;;15.80;99.90;;;14.89;96.44;101819.63;4946007;28;20159;-73
2023/09/06 00:17:12;;;;;;;9.52;2.70;;;15.80;99.90;;;14.88;95.98;101824.06;4947767;28;20039;-73
2023/09/06 00:19:38;;;;;;;3.22;2.05;;;15.70;99.90;;;14.87;95.77;101818.81;4946714;28;20032;-73
2023/09/06 00:22:03;;;;;;;6.45;2.22;;;15.70;99.90;;;14.85;95.90;101824.19;4945131;28;20023;-73
2023/09/06 00:24:31;;;;;;;6.93;3.20;;;15.70;99.90;;;14.86;97.82;101823.28;4945805;28;20079;-72
2023/09/06 00:26:58;;;;;;;6.82;2.20;;;15.70;99.90;;;14.85;97.71;101818.91;4945736;28;20031;-73
2023/09/06 00:29:24;;;;;;;7.05;1.90;;;15.70;99.90;;;14.80;96.79;101822.72;4945533;28;20390;-72
2023/09/06 00:31:49;;;;;;;7.72;1.70;;;15.60;99.90;;;14.66;93.53;101820.69;4942910;28;20031;-73
2023/09/06 00:34:16;;;;;;;3.92;1.92;;;15.50;99.90;;;14.61;92.42;101814.75;4940077;28;20039;-73
2023/09/06 00:36:42;;;;;;;2.00;1.90;;;15.50;99.90;;;14.55;92.82;101811.44;4945565;28;20027;-72
2023/09/06 00:39:09;;;;;;;7.25;3.60;;;15.50;99.90;;;14.57;95.00;101820.16;4946450;28;20027;-73
2023/09/06 00:41:40;;;;;;;6.97;4.40;;;15.50;99.90;;;14.61;98.72;101817.41;4945579;28;20786;-72
2023/09/06 00:44:08;;;;;;;7.05;3.58;;;15.50;99.90;;;14.61;100.00;101810.31;4940630;28;20066;-73
2023/09/06 00:46:34;;;;;;;6.40;3.60;;;15.50;99.90;;;14.62;100.00;101816.44;4942802;28;20028;-72
2023/09/06 00:49:01;;;;;;;4.93;4.10;;;15.50;99.90;;;14.61;100.00;101817.41;4945113;28;20118;-73
2023/09/06 00:51:27;;;;;;;7.97;3.25;;;15.50;99.90;;;14.57;100.00;101820.16;4947517;28;20045;-73
2023/09/06 00:53:53;;;;;;;8.52;4.10;;;15.50;99.90;;;14.53;100.00;101821.22;4959288;28;20029;-72
2023/09/06 00:56:19;;;;;;;9.10;3.97;;;15.30;99.90;;;14.33;100.00;101816.81;4942587;28;20095;-73
2023/09/06 00:58:46;;;;;;;5.80;3.60;;;15.30;99.90;;;14.32;100.00;101822.22;4943847;28;20039;-72
2023/09/06 01:01:11;;;;;;;7.18;3.95;;;15.30;99.90;;;14.33;100.00;101823.91;4944408;28;20081;-73
2023/09/06 01:03:41;;;;;;;4.50;3.40;;;15.30;99.90;;;14.30;100.00;101824.06;4946502;28;20032;-72
2023/09/06 01:06:27;;;;;;;7.07;3.97;;;15.30;99.90;;;14.28;100.00;101832.06;4960893;28;20378;-72
2023/09/06 01:08:58;;;;;;;7.88;4.38;;;15.20;99.90;;;14.25;100.00;101831.34;4934839;28;20082;-73
2023/09/06 01:11:26;;;;;;;5.57;4.00;;;15.20;99.90;;;14.23;100.00;101833.19;4942004;28;20043;-73
2023/09/06 01:13:58;;;;;;;6.80;4.95;;;15.20;99.90;;;14.22;100.00;101831.50;4945293;28;20042;-72
2023/09/06 01:16:45;;;;;;;8.43;4.80;;;15.20;99.90;;;14.24;100.00;101829.63;4943326;28;20027;-73
2023/09/06 01:19:14;;;;;;;7.75;4.35;;;15.20;99.90;;;14.27;100.00;101834.78;4943961;28;20027;-73
2023/09/06 01:21:58;;;;;;;6.82;4.40;;;15.20;99.90;;;14.33;100.00;101834.50;4950770;28;20050;-73
2023/09/06 01:24:24;;;;;;;7.72;4.55;;;15.30;99.90;;;14.38;100.00;101836.94;4946703;28;20038;-72
2023/09/06 01:26:51;;;;;;;5.00;4.50;;;15.30;99.90;;;14.43;100.00;101832.31;4943222;28;20146;-72
2023/09/06 01:29:18;;;;;;;3.78;3.25;;;15.30;99.90;;;14.46;100.00;101835.69;4942879;28;20396;-73
2023/09/06 01:31:43;;;;;;;4.68;2.92;;;15.40;99.90;;;14.46;100.00;101835.69;4941892;28;20042;-72
2023/09/06 01:34:09;;;;;;;4.88;3.00;;;15.40;99.90;;;14.45;100.00;101833.97;4975456;28;20049;-72
2023/09/06 01:36:35;;;;;;;2.92;2.63;;;15.40;99.90;;;14.43;100.00;101832.31;4936720;28;20062;-72
2023/09/06 01:39:01;;;;;;;4.03;3.20;;;15.30;99.90;;;14.42;100.00;101833.25;4944942;28;20034;-72
2023/09/06 01:41:27;;;;;;;7.13;4.65;;;15.30;99.90;;;14.40;100.00;101841.25;4943017;28;20039;-72
2023/09/06 01:43:54;;;;;;;5.18;3.40;;;15.30;99.90;;;14.37;100.00;101828.16;4940433;28;20126;-73
2023/09/06 01:46:22;;;;;;;4.75;3.28;;;15.20;99.90;;;14.34;100.00;101838.88;4943630;28;20509;-72
2023/09/06 01:48:48;;;;;;;5.78;3.10;;;15.20;99.90;;;14.28;100.00;101839.16;4947032;28;20034;-72
2023/09/06 01:51:15;;;;;;;5.70;3.00;;;15.20;99.90;;;14.24;100.00;101830.50;4943982;28;20036;-72
2023/09/06 01:53:44;;;;;;;6.57;3.47;;;15.10;99.90;;;14.23;100.00;101830.53;4941772;28;20398;-72
2023/09/06 01:56:09;;;;;;;6.95;3.28;;;15.10;99.90;;;14.20;100.00;101834.19;4958400;28;20812;-72
2023/09/06 01:58:37;;;;;;;8.80;2.88;;;15.10;99.90;;;14.17;100.00;101834.34;4944091;28;20039;-72
2023/09/06 02:01:05;;;;;;;7.95;3.30;;;15.10;99.90;;;14.16;100.00;101835.25;4935137;28;20077;-73
2023/09/06 02:03:33;;;;;;;5.53;3.92;;;15.10;99.90;;;14.18;100.00;101830.75;4943774;28;20031;-73
2023/09/06 02:06:01;;;;;;;4.65;3.70;;;15.10;99.90;;;14.22;100.00;101834.13;4940938;28;20037;-72
2023/09/06 02:08:26;;;;;;;7.10;4.60;;;15.10;99.90;;;14.24;100.00;101834.94;4940290;28;20031;-72
2023/09/06 02:10:52;;;;;;;8.90;5.15;;;15.20;99.90;;;14.30;100.00;101826.72;4943988;28;20050;-72
2023/09/06 02:13:18;;;;;;;9.35;4.70;;;15.20;99.90;;;14.32;100.00;101831.00;4944830;28;20035;-72
2023/09/06 02:15:43;;;;;;;8.07;5.18;;;15.30;99.90;;;14.37;100.00;101833.44;4944495;28;20059;-72
2023/09/06 02:18:10;;;;;;;6.10;4.65;;;15.30;99.90;;;14.41;100.00;101832.38;4942030;28;20035;-72
2023/09/06 02:20:39;;;;;;;14.05;4.55;;;15.30;99.90;;;14.42;100.00;101825.28;4955148;28;20034;-72
2023/09/06 02:23:05;;;;;;;8.07;4.80;;;15.40;99.90;;;14.47;100.00;101837.41;4957557;28;20098;-72
2023/09/06 02:25:32;;;;;;;6.85;4.00;;;15.40;99.90;;;14.47;100.00;101829.47;4952422;28;20370;-73
2023/09/06 02:28:04;;;;;;;5.32;3.90;;;15.40;99.90;;;14.47;100.00;101839.19;4943436;28;20036;-73
2023/09/06 02:30:30;;;;;;;5.28;3.53;;;15.30;99.90;;;14.39;100.00;101838.69;4941598;28;20038;-72
2023/09/06 02:32:56;;;;;;;3.78;2.70;;;15.30;99.90;;;14.31;100.00;101839.88;4941555;28;20501;-72
2023/09/06 02:35:22;;;;;;;3.78;2.72;;;15.20;99.90;;;14.26;100.00;101833.06;4942871;28;20042;-73
2023/09/06 02:37:48;;;;;;;3.70;2.85;;;15.10;99.90;;;14.21;100.00;101832.41;4944221;28;20031;-73
2023/09/06 02:40:16;;;;;;;4.15;3.00;;;15.10;99.90;;;14.14;100.00;101832.66;4975848;28;20755;-72
2023/09/06 02:42:43;;;;;;;4.30;3.17;;;15.00;99.90;;;14.08;100.00;101830.31;4940711;28;20535;-73
2023/09/06 02:45:13;;;;;;;8.75;3.20;;;15.00;99.90;;;14.01;100.00;101831.47;4942282;28;20039;-73
2023/09/06 02:47:48;;;;;;;7.45;2.50;;;14.90;99.90;;;13.96;100.00;101833.47;4942871;28;20043;-73
2023/09/06 02:50:16;;;;;;;3.75;3.40;;;14.90;99.90;;;13.90;100.00;101834.59;4940830;28;20498;-72
2023/09/06 02:52:44;;;;;;;7.40;3.00;;;14.80;99.90;;;13.88;100.00;101830.31;4941910;28;20028;-72
2023/09/06 02:55:14;;;;;;;9.70;3.33;;;14.80;99.90;;;13.85;100.00;101833.94;4954962;28;20110;-72
2023/09/06 02:57:41;;;;;;;11.30;4.25;;;14.80;99.90;;;13.87;100.00;101840.03;4941564;28;20038;-73
2023/09/06 03:00:26;;;;;;;5.03;3.47;;;14.80;99.90;;;13.88;100.00;101840.88;4945638;28;20410;-72
2023/09/06 03:02:58;;;;;;;4.28;3.42;;;14.80;99.90;;;13.85;100.00;101841.03;4939803;28;20034;-73
2023/09/06 03:05:27;;;;;;;4.90;2.70;;;14.80;99.90;;;13.81;100.00;101847.38;4955673;28;20055;-72
2023/09/06 03:07:53;;;;;;;2.85;2.40;;;14.70;99.90;;;13.74;100.00;101842.34;4941830;28;20028;-72
2023/09/06 03:10:22;;;;;;;6.60;2.42;;;14.70;99.90;;;13.71;100.00;101847.78;4948413;28;20023;-73
2023/09/06 03:12:54;;;;;;;7.07;2.10;;;14.70;99.90;;;13.67;100.00;101845.28;4978583;28;20031;-72
2023/09/06 03:15:23;;;;;;;4.50;2.38;;;14.60;99.90;;;13.64;100.00;101856.03;4946436;28;20111;-72
2023/09/06 03:17:53;;;;;;;5.65;3.80;;;14.60;99.90;;;13.62;100.00;101852.56;4975139;28;20031;-73
2023/09/06 03:20:31;;;;;;;5.50;2.97;;;14.50;99.90;;;13.61;100.00;101845.56;4946764;28;20027;-73
2023/09/06 03:22:59;;;;;;;4.72;2.85;;;14.60;99.90;;;13.60;100.00;101849.13;4945888;28;20034;-73
2023/09/06 03:25:28;;;;;;;7.75;3.50;;;14.50;99.90;;;13.57;100.00;101844.84;4979267;28;20117;-73
2023/09/06 03:28:01;;;;;;;3.17;2.40;;;14.50;99.90;;;13.56;100.00;101847.53;4945719;28;20038;-72
2023/09/06 03:30:30;;;;;;;2.42;2.17;;;14.50;99.90;;;13.48;100.00;101846.06;4960716;28;20044;-72
2023/09/06 03:32:58;;;;;;;4.72;2.83;;;14.40;99.90;;;13.44;100.00;101849.75;4945977;28;20051;-73
2023/09/06 03:35:23;;;;;;;5.22;2.80;;;14.40;99.90;;;13.37;100.00;101847.41;4947373;28;20038;-72
2023/09/06 03:37:52;;;;;;;2.22;1.90;;;14.30;99.90;;;13.27;100.00;101846.91;4946219;28;20398;-73
2023/09/06 03:40:37;;;;;;;2.90;2.20;;;14.20;99.90;;;13.22;99.90;101848.88;4944645;28;20036;-72
2023/09/06 03:43:17;;;;;;;12.80;2.70;;;14.20;99.90;;;13.13;99.36;101847.44;4943725;28;20031;-73
2023/09/06 03:45:55;;;;;;;4.38;2.67;;;14.10;99.90;;;13.08;99.00;101850.25;4952088;28;20039;-73
2023/09/06 03:48:23;;;;;;;10.63;6.05;;;14.10;99.90;;;13.07;99.55;101850.34;4947680;28;20089;-73
2023/09/06 03:50:55;;;;;;;6.03;3.13;;;14.00;99.90;;;13.05;100.00;101855.69;4946460;28;20466;-73
2023/09/06 03:53:25;;;;;;;5.43;4.18;;;14.00;99.90;;;13.02;100.00;101854.94;4967196;28;20042;-72
2023/09/06 03:55:52;;;;;;;7.55;4.50;;;14.00;99.90;;;13.03;100.00;101857.53;4958704;28;20084;-72
2023/09/06 03:58:18;;;;;;;6.90;4.03;;;12.90;99.90;;;13.08;100.00;101863.50;4950890;28;20031;-72
2023/09/06 04:00:44;;;;;;;7.18;5.25;;;14.00;99.90;;;13.11;100.00;101863.38;4944271;28;20048;-72
2023/09/06 04:03:11;;;;;;;11.68;5.80;;;14.00;99.90;;;13.14;100.00;101857.09;4942793;28;20203;-72
2023/09/06 04:05:37;;;;;;;8.52;5.32;;;14.10;99.90;;;13.15;100.00;101864.09;4943422;28;20034;-72
2023/09/06 04:08:03;;;;;;;4.15;3.75;;;14.10;99.90;;;13.13;100.00;101869.47;4943594;28;20493;-73
2023/09/06 04:10:37;;;;;;;6.65;4.97;;;14.10;99.90;;;13.08;100.00;101873.22;4948665;28;20051;-72
2023/09/06 04:13:08;;;;;;;9.73;7.00;;;14.00;99.90;;;13.03;100.00;101870.75;4944487;28;20040;-72
2023/09/06 04:15:35;;;;;;;10.55;7.20;;;14.00;99.90;;;13.05;100.00;101873.34;4944199;28;20569;-72
2023/09/06 04:18:03;;;;;;;10.18;6.85;;;14.10;99.90;;;13.05;100.00;101874.19;4943485;28;20027;-72
2023/09/06 04:23:21;;;;;;;13.32;9.10;;;14.00;99.90;;;13.06;100.00;101880.34;4918848;29;20541;-72
2023/09/06 04:25:47;;;;;;;13.93;8.18;;;14.00;99.90;;;13.01;100.00;101883.16;4929903;29;20052;-72
2023/09/06 04:28:15;;;;;;;10.07;7.38;;;14.00;99.90;;;13.06;100.00;101888.28;4930206;29;20047;-75
2023/09/06 04:30:47;;;;;;;10.93;7.32;;;14.00;99.90;;;13.09;100.00;101893.47;4915001;29;20094;-75
2023/09/06 04:33:14;;;;;;;8.57;5.82;;;14.00;99.90;;;13.05;100.00;101889.22;4913048;29;20036;-75
2023/09/06 04:35:45;;;;;;;9.40;7.53;;;14.00;99.90;;;13.02;100.00;101884.03;4915681;29;20076;-72
2023/09/06 04:38:14;;;;;;;9.85;7.13;;;14.00;99.90;;;13.03;100.00;101880.47;4915684;29;20047;-73
2023/09/06 04:40:43;;;;;;;10.02;7.25;;;14.00;99.90;;;13.05;100.00;101889.22;4913776;29;20040;-73
2023/09/06 04:43:10;;;;;;;12.20;8.68;;;14.00;99.90;;;13.10;100.00;101892.53;4916071;29;20040;-72
2023/09/06 04:45:39;;;;;;;11.88;7.88;;;14.00;99.90;;;13.13;100.00;101885.34;4914516;29;20040;-73
2023/09/06 04:48:10;;;;;;;15.32;7.88;;;14.00;99.90;;;13.23;100.00;101882.34;4914892;29;20143;-72
2023/09/06 04:50:40;;;;;;;13.80;7.40;;;14.10;99.90;;;13.33;100.00;101889.03;4914855;29;20038;-72
2023/09/06 04:53:11;;;;;;;9.95;5.30;;;14.20;99.90;;;13.40;100.00;101889.63;4930232;29;20040;-72
2023/09/06 04:55:39;;;;;;;9.65;5.15;;;14.30;99.90;;;13.47;100.00;101881.38;4913573;29;20623;-72
2023/09/06 04:58:07;;;;;;;10.77;6.72;;;14.30;99.90;;;13.58;100.00;101888.88;4899100;29;20063;-72
2023/09/06 05:00:41;;;;;;;15.82;6.88;;;14.40;99.90;;;13.65;100.00;101889.50;4929982;28;20055;-72
2023/09/06 05:03:13;;;;;;;8.35;6.68;;;14.40;99.90;;;13.72;100.00;101893.63;4942966;28;20059;-72
2023/09/06 05:05:41;;;;;;;12.65;6.57;;;14.50;99.90;;;13.79;100.00;101899.53;4940822;28;20040;-73
2023/09/06 05:08:07;;;;;;;14.38;5.78;;;14.60;99.90;;;13.87;100.00;101892.13;4945361;28;20500;-73
2023/09/06 05:10:37;;;;;;;8.88;5.07;;;14.60;99.90;;;13.94;100.00;101901.53;4944516;28;20044;-73
2023/09/06 05:13:07;;;;;;;16.90;6.32;;;14.70;99.90;;;14.03;100.00;101901.13;4943618;28;20039;-73
2023/09/06 05:15:38;;;;;;;12.27;4.97;;;14.80;99.90;;;14.13;100.00;101898.97;4941405;28;20036;-73
2023/09/06 05:18:05;;;;;;;10.80;6.07;;;14.90;99.90;;;14.41;100.00;101911.03;4944085;28;20035;-72
2023/09/06 05:20:37;;;;;;;10.00;5.72;;;15.00;99.90;;;14.65;100.00;101903.81;4947039;28;20106;-72
2023/09/06 05:23:14;;;;;;;8.90;6.03;;;15.50;99.90;;;17.88;96.07;101943.13;4925770;28;20178;-72
2023/09/06 05:25:42;;;;;;;6.60;4.72;;;17.00;99.90;;;22.16;74.38;101956.44;4944489;28;20109;-73
2023/09/06 05:28:11;;;;;;;8.00;4.03;;;18.70;99.90;;;24.98;62.85;101963.84;4941798;28;20032;-72
2023/09/06 05:30:41;;;;;;;12.48;4.20;;;20.50;99.90;;;26.86;56.82;101981.72;4942802;28;20057;-73
2023/09/06 05:33:07;;;;;;;9.15;3.47;;;21.80;99.90;;;25.91;57.06;101973.47;4944883;28;20532;-73
2023/09/06 05:35:34;;;;;;;5.93;3.65;;;22.20;99.90;;;23.89;61.19;101952.53;4942380;28;20051;-73
2023/09/06 05:38:01;;;;;;;5.30;3.17;;;22.20;99.90;;;23.75;61.89;101960.84;4942641;28;20023;-73
2023/09/06 05:40:27;;;;;;;5.57;3.25;;;21.90;99.90;;;22.12;65.46;101960.31;4973805;28;20028;-73
2023/09/06 05:42:53;;;;;;;11.65;3.67;;;21.60;99.90;;;21.62;67.47;101952.44;4942783;28;20561;-73
2023/09/06 05:45:23;;;;;;;6.57;3.83;;;21.20;99.90;;;21.22;69.53;101949.09;4943184;28;20035;-73
2023/09/06 05:47:50;;;;;;;9.48;3.72;;;21.00;99.90;;;21.28;69.88;101949.50;4944859;28;21389;-72
2023/09/06 05:50:16;;;;;;;13.68;3.55;;;20.80;99.90;;;20.96;70.70;101954.50;4958734;28;20036;-72
2023/09/06 05:52:42;;;;;;;12.13;3.83;;;20.60;99.90;;;20.54;72.57;101953.84;4924874;29;20107;-72
2023/09/06 05:55:10;;;;;;;10.02;3.75;;;20.50;99.90;;;20.39;73.54;101947.75;4944404;28;20082;-73
2023/09/06 05:57:35;;;;;;;11.13;4.10;;;20.30;99.90;;;20.32;74.32;101948.25;4945025;28;20034;-73
2023/09/06 06:00:04;;;;;;;8.55;3.60;;;20.30;99.90;;;20.19;75.30;101953.56;4943116;28;20750;-73
2023/09/06 06:02:31;;;;;;;6.18;3.53;;;20.30;99.90;;;20.14;76.01;101947.69;4957107;28;20034;-73
2023/09/06 06:04:57;;;;;;;4.43;3.42;;;20.30;99.90;;;20.51;76.17;101959.41;4941868;28;20107;-73
2023/09/06 06:07:23;;;;;;;10.60;3.58;;;20.50;99.90;;;21.30;73.87;101960.97;4943241;28;20035;-73
2023/09/06 06:09:49;;;;;;;5.30;3.15;;;20.70;99.90;;;21.73;72.99;101970.41;4942203;28;20066;-73
2023/09/06 06:12:15;;;;;;;7.75;3.90;;;21.10;99.90;;;22.18;70.95;101970.59;4943273;28;20374;-73
2023/09/06 06:14:41;;;;;;;7.35;3.30;;;21.30;99.90;;;21.72;72.35;101968.66;4940933;28;20032;-73
2023/09/06 06:17:09;;;;;;;8.00;3.42;;;21.30;99.90;;;21.18;74.21;101961.00;4941966;28;20074;-74
2023/09/06 06:19:37;;;;;;;8.23;3.53;;;21.30;99.90;;;21.07;75.53;101973.31;4944494;28;20512;-73
2023/09/06 06:22:03;;;;;;;7.68;4.00;;;21.20;99.90;;;20.74;77.71;101962.34;4944957;28;20054;-73
2023/09/06 06:24:35;;;;;;;6.55;3.20;;;21.00;99.90;;;20.56;78.27;101967.09;4940402;28;20031;-74
2023/09/06 06:27:01;;;;;;;8.57;3.45;;;21.00;99.90;;;21.20;77.51;101967.09;4972737;28;20039;-73
2023/09/06 06:29:28;;;;;;;7.00;3.33;;;21.30;99.90;;;23.03;71.16;101991.78;4941043;28;20039;-73
2023/09/06 06:31:53;;;;;;;7.72;3.20;;;21.80;99.90;;;23.52;68.28;101992.31;4942073;28;20034;-73
2023/09/06 06:34:19;;;;;;;8.77;3.00;;;22.40;99.90;;;25.07;64.33;102014.22;4942968;28;20114;-74
2023/09/06 06:36:46;;;;;;;8.52;2.80;;;23.40;99.90;;;27.15;58.36;102017.59;4977627;28;20050;-73
2023/09/06 06:39:13;;;;;;;3.42;2.50;;;24.30;99.90;;;26.08;59.18;102012.38;4943376;28;20035;-73
2023/09/06 06:41:40;;;;;;;10.60;3.47;;;24.90;99.90;;;27.28;57.00;102032.63;4941012;28;20060;-73
2023/09/06 06:44:06;;;;;;;12.43;2.92;;;25.40;99.90;;;27.32;56.95;102029.50;4959547;28;20027;-74
2023/09/06 06:46:34;;;;;;;6.60;2.83;;;26.00;99.90;;;28.89;54.14;102056.22;4947761;28;20078;-74
2023/09/06 06:49:04;;;;;;;9.20;2.95;;;27.10;99.90;;;31.38;49.67;102069.84;4947184;28;20062;-73
2023/09/06 06:51:38;;;;;;;5.97;3.08;;;28.60;99.90;;;33.44;46.67;102091.75;4944107;28;20050;-74
2023/09/06 06:54:05;;;;;;;28.00;3.88;;;30.50;99.90;;;35.46;43.28;102107.91;4945570;28;20490;-74
2023/09/06 06:56:31;;;;;;;3.28;2.65;;;32.10;99.90;;;36.38;40.46;102123.00;4945305;28;20046;-73
2023/09/06 06:58:57;;;;;;;6.50;2.90;;;33.40;98.50;;;37.41;39.14;102132.59;4949574;28;20074;-74
2023/09/06 07:01:24;;;;;;;12.02;2.53;;;34.30;96.10;;;37.78;38.10;102149.38;4964640;28;20300;-73
2023/09/06 07:03:51;;;;;;;5.28;2.42;;;35.10;94.80;;;38.24;36.67;102165.66;4946911;28;20034;-74
2023/09/06 07:06:16;;;;;;;8.40;2.83;;;35.50;93.00;;;37.05;37.89;102156.75;4943919;28;20043;-73
2023/09/06 07:08:42;;;;;;;4.82;2.67;;;35.70;94.10;;;37.71;37.42;102169.53;4949695;28;20042;-74
2023/09/06 07:11:08;;;;;;;5.15;3.00;;;36.10;94.20;;;38.36;36.75;102169.38;4946426;28;20202;-74
2023/09/06 07:13:34;;;;;;;5.00;3.22;;;36.50;93.70;;;38.25;36.63;102180.25;4946174;28;20485;-74
2023/09/06 07:16:00;;;;;;;5.93;3.38;;;36.70;92.90;;;37.97;37.16;102182.28;4944047;28;20554;-73
2023/09/06 07:18:29;;;;;;;6.40;3.50;;;36.80;90.90;;;37.59;37.08;102179.50;4946060;28;20019;-74
2023/09/06 07:20:55;;;;;;;4.40;3.28;;;36.70;91.40;;;37.67;37.38;102187.50;4963445;28;20061;-73
2023/09/06 07:23:26;;;;;;;4.07;2.95;;;37.00;91.50;;;38.31;36.39;102195.88;4946381;28;20106;-74
2023/09/06 07:25:52;;;;;;;5.35;2.88;;;37.20;91.70;;;38.16;36.97;102201.66;4945704;28;20435;-74
2023/09/06 07:28:22;;;;;;;6.63;3.13;;;37.20;92.10;;;38.14;36.78;102193.66;4943008;28;20039;-73
2023/09/06 07:30:53;;;;;;;8.00;3.13;;;37.90;91.50;;;39.12;35.68;102202.47;4943927;28;20032;-74
2023/09/06 07:33:18;;;;;;;7.75;3.00;;;38.50;90.30;;;39.16;35.42;102207.31;4946912;28;20109;-74
2023/09/06 07:35:45;;;;;;;4.55;3.05;;;38.50;87.00;;;38.21;36.47;102190.00;4946198;28;20042;-74
2023/09/06 07:38:11;;;;;;;7.22;2.80;;;38.70;87.90;;;38.80;35.66;102205.28;4945559;28;20027;-74
2023/09/06 07:40:37;;;;;;;4.70;2.58;;;38.70;87.40;;;38.83;35.40;102212.22;4975909;28;20050;-74
2023/09/06 07:43:03;;;;;;;6.50;2.60;;;38.90;87.70;;;39.03;35.57;102212.94;4944300;28;20039;-74
2023/09/06 07:45:29;;;;;;;4.57;2.78;;;39.20;85.40;;;38.76;35.85;102204.03;4950212;28;20038;-74
2023/09/06 07:48:01;;;;;;;4.03;3.00;;;39.50;88.10;;;39.40;35.35;102212.16;4946457;28;20039;-74
2023/09/06 07:50:26;;;;;;;4.40;3.25;;;39.60;86.40;;;39.61;34.89;102216.38;4944162;28;20387;-73
2023/09/06 07:52:52;;;;;;;4.07;2.85;;;39.90;83.30;;;39.83;34.18;102222.25;4944777;28;20038;-74
2023/09/06 07:55:18;;;;;;;10.95;3.15;;;40.30;86.30;;;40.29;34.11;102216.16;4946194;28;20082;-73
2023/09/06 07:57:45;;;;;;;2.97;2.67;;;40.60;83.50;;;40.43;33.79;102229.75;4948459;28;20035;-74
2023/09/06 08:00:12;;;;;;;7.93;2.83;;;41.00;84.40;;;40.70;33.31;102227.44;4945066;28;20044;-74
2023/09/06 08:02:43;;;;;;;4.80;2.80;;;41.30;82.50;;;40.79;32.65;102229.63;4945556;28;20046;-74
2023/09/06 08:05:09;;;;;;;9.27;2.90;;;41.00;80.10;;;39.94;34.18;102214.09;4944215;28;20054;-73
2023/09/06 08:07:41;;;;;;;4.88;2.42;;;40.90;83.20;;;40.23;34.05;102199.69;4946667;28;20095;-74
2023/09/06 08:10:29;;;;;;;3.72;2.63;;;41.10;83.50;;;40.19;33.33;102205.66;4947110;28;20027;-73
2023/09/06 08:12:55;;;;;;;7.50;2.72;;;40.80;78.50;;;39.74;34.23;102206.06;4905918;29;20084;-75
2023/09/06 08:15:22;;;;;;;4.47;2.53;;;40.60;80.30;;;39.52;34.17;102202.91;4906384;29;20052;-74
2023/09/06 08:17:49;;;;;;;10.10;2.47;;;40.40;80.70;;;39.42;34.75;102193.50;4922871;29;20498;-74
2023/09/06 08:20:16;;;;;;;8.68;3.00;;;40.30;80.60;;;39.11;34.88;102196.09;4905911;29;20036;-74
2023/09/06 08:22:44;;;;;;;7.57;2.60;;;39.80;79.40;;;38.23;35.44;102180.50;4905980;29;20095;-74
2023/09/06 08:25:12;;;;;;;8.32;2.90;;;39.50;81.30;;;38.17;35.74;102171.22;4906985;29;20044;-73
2023/09/06 08:27:37;;;;;;;6.25;2.70;;;39.20;81.40;;;37.86;35.97;102162.88;4907425;29;20402;-76
2023/09/06 08:30:10;;;;;;;8.60;2.58;;;38.80;83.00;;;37.76;36.47;102155.13;4903874;29;20048;-75
2023/09/06 08:32:37;;;;;;;5.55;2.70;;;38.70;81.20;;;37.47;36.58;102156.47;4909016;29;20035;-74
2023/09/06 08:35:04;;;;;;;4.13;2.50;;;38.10;82.00;;;36.40;38.40;102140.06;4907657;29;20111;-74
2023/09/06 08:37:35;;;;;;;4.50;1.90;;;37.60;84.40;;;36.31;38.05;102136.69;4923280;29;20110;-74
2023/09/06 08:40:05;;;;;;;5.60;2.33;;;37.30;84.20;;;35.97;38.98;102129.41;4906447;29;20035;-74
2023/09/06 08:42:35;;;;;;;8.93;2.05;;;37.00;86.30;;;36.14;38.86;102127.19;4906523;29;20036;-73
2023/09/06 08:45:04;;;;;;;11.55;1.98;;;36.60;85.30;;;35.46;39.70;102116.13;4904799;29;20079;-74
2023/09/06 08:47:31;;;;;;;11.50;1.90;;;36.30;86.80;;;35.05;40.65;102106.81;4890468;29;20040;-74
2023/09/06 08:49:57;;;;;;;7.38;2.58;;;35.80;88.60;;;34.34;41.71;102100.56;4921446;28;20058;-74
2023/09/06 08:52:30;;;;;;;8.82;2.05;;;35.60;89.00;;;34.74;41.18;102098.22;4943748;28;20068;-73
2023/09/06 08:54:55;;;;;;;2.60;1.75;;;34.90;89.50;;;33.43;43.20;102085.41;4948248;28;20453;-73
2023/09/06 08:57:22;;;;;;;61.60;7.13;;;34.60;90.40;;;33.53;43.35;102082.41;4945958;28;20075;-73
2023/09/06 08:59:49;;;;;;;8.50;2.30;;;34.00;90.60;;;32.76;44.89;102069.97;4944522;28;20107;-74
2023/09/06 09:02:16;;;;;;;17.08;3.00;;;33.50;90.70;;;32.64;44.37;102068.75;4934061;28;20027;-73
2023/09/06 09:11:25;;;;;;;7.50;1.80;;;31.20;93.40;;;30.15;49.51;102045.53;4904114;29;20048;-74
2023/09/06 09:13:51;;;;;;;9.65;1.80;;;30.90;95.10;;;30.36;50.21;102050.50;4903030;29;20033;-74
2023/09/06 09:16:22;;;;;;;4.35;1.73;;;30.70;95.00;;;29.93;50.81;102060.59;4888449;29;20032;-73
2023/09/06 09:18:49;;;;;;;4.85;1.90;;;30.50;95.20;;;29.72;51.34;102061.06;4903292;29;20040;-74
2023/09/06 09:21:16;;;;;;;4.07;1.70;;;30.40;95.10;;;29.71;51.28;102053.94;4889424;29;20048;-73
2023/09/06 09:23:55;;;;;;;5.03;1.70;;;30.30;96.10;;;29.86;51.62;102065.84;4905156;29;20396;-76
2023/09/06 09:26:22;;;;;;;5.20;1.92;;;30.20;96.00;;;29.58;51.85;102063.38;4889809;29;20055;-74
2023/09/06 09:28:50;;;;;;;4.65;1.88;;;30.20;96.30;;;29.55;52.05;102058.28;4885903;29;20040;-73
2023/09/06 09:31:17;;;;;;;5.47;1.88;;;30.10;96.00;;;29.45;52.03;102058.41;4889148;29;20045;-73
2023/09/06 09:33:52;;;;;;;4.97;1.98;;;29.90;96.50;;;29.16;52.91;102053.38;4886550;29;20059;-75
2023/09/06 09:36:27;;;;;;;5.20;1.58;;;29.90;97.70;;;29.24;54.00;102049.84;4886453;29;20123;-75
2023/09/06 09:38:54;;;;;;;5.78;1.80;;;29.90;98.20;;;29.48;53.54;102056.38;4886280;29;20135;-74
2023/09/06 09:41:30;;;;;;;9.23;1.90;;;29.90;96.90;;;29.22;52.85;102057.28;4885704;29;20036;-74
2023/09/06 09:44:19;;;;;;;8.77;1.90;;;29.90;97.70;;;29.24;53.51;102056.13;4888215;29;20067;-74
2023/09/06 09:46:49;;;;;;;10.02;1.60;;;29.80;97.30;;;29.05;54.00;102050.91;4889832;29;20462;-73
2023/09/06 09:49:26;;;;;;;4.55;1.80;;;29.60;97.40;;;29.00;53.95;102045.09;4942351;28;20031;-75
2023/09/06 09:51:54;;;;;;;6.05;1.88;;;29.70;98.00;;;29.13;53.31;102050.97;4940521;28;20496;-74
2023/09/06 09:54:30;;;;;;;3.85;1.80;;;29.70;97.10;;;29.09;53.13;102052.31;4949519;28;20062;-73
2023/09/06 09:57:04;;;;;;;;;;;29.70;97.80;;;28.87;53.94;102045.53;4950150;28;20071;-74
2023/09/06 09:59:40;;;;;;;5.90;2.00;;;29.50;98.00;;;28.90;53.96;102044.38;4959644;28;19915;-74
2023/09/06 10:02:09;;;;;;;2.67;1.83;;;29.60;98.10;;;29.09;53.10;102051.44;4939637;28;20394;-73
2023/09/06 10:04:44;;;;;;;3.85;1.67;;;29.80;98.30;;;29.47;53.76;102055.53;4944050;28;20031;-74
2023/09/06 10:07:14;;;;;;;7.60;2.10;;;30.00;97.50;;;29.71;52.06;102056.66;4948419;28;20078;-74
2023/09/06 10:09:43;;;;;;;5.72;1.98;;;30.20;96.80;;;29.75;51.83;102063.47;4943890;28;20095;-73
2023/09/06 10:12:19;;;;;;;13.48;1.90;;;30.20;96.80;;;29.74;51.74;102067.19;4941710;28;20501;-73
2023/09/06 10:14:48;;;;;;;6.03;1.67;;;30.10;97.00;;;29.60;52.40;102065.94;4940523;28;20040;-73
2023/09/06 10:17:17;;;;;;;5.10;2.25;;;30.20;96.90;;;29.69;51.74;102058.66;4942291;28;20043;-73
2023/09/06 10:19:54;;;;;;;4.53;1.67;;;30.30;96.40;;;29.78;50.78;102065.84;4942756;28;20699;-73
2023/09/06 10:22:21;;;;;;;7.13;1.98;;;30.20;96.80;;;29.52;52.02;102064.03;4925595;28;20153;-73